Hauptseite
METAR-TAF:

METAR-TAF

Flughäfen :

Militärflugplatz Mont-de-Marsan

Mont-De-Marsan, Frankreich

Breite: 43-55N, Länge: 000-30W, Höhe: 62 m

Beobachtung

Neuester Wetterbericht von vor 22 Minuten, um 23:30 UTC
Windstille
Temperatur 4°C
Luftfeuchtigkeit 93%
Luftdruck 1032 hPa
Sichtweite 10 km oder mehr
keine Wolken unter 1500 m und keine Kumulonimbus oder Gewitterwolken

METAR: LFBM 192330Z AUTO 00000KT CAVOK 04/03 Q1032 NOSIG

Zeit: 00:52 (23:52 UTC)

Prognose

Neuester Wetterbericht von vor 3 Stunden und 52 Minuten, um 20:00 UTC
Gültige Prognose vom 19 um 21 UTC bis 20 um 21 UTC
Wind 5 kt aus Nord/Nordost
Sichtweite 10 km oder mehr
keine Wolken unter 1500 m und keine Kumulonimbus oder Gewitterwolken

TAF: LFBM 192000Z 1921/2021 03005KT CAVOK

Wetterbeobachtungen und Prognosen von mehr als 4000 Flughäfen (METAR und TAF Bericht).

Die verfügbaren Stationen werden durch gelbe und rote Markierungen auf der Karte dargestellt.

Führen Sie die Maus auf sie, um den Namen der Station zu sehen.

Darauf klicken, um die Beobachtung von Wetterbeobachtungen und Prognosen zu sehen.

Um die Karte zu ändern : klicken Sie auf den grünen Tasten mit einem schwarzen Kreuz Zum Vergrößern, auf den grünen Button mit einem Gedankenstrich zu verkleinern, oder auf die grünen Pfeile für benachbarte Karten.


METAR-TAF: